This is the latest recevied weather packets stored in our database for station/object KHOP. If no packets are shown the sender has not sent any weather packets the latest 1 day(s).
| Time | Temp. | Humidity | Pressure | Rain* | Wind** | Luminosity | Snow |
|---|---|---|---|---|---|---|---|
| 1778022813 | 17.78° C | 77% | 1007.5 hPa | - | 2.68 m/s, 180° | - | - |
| 1778022330 | - | - | 1007.8 hPa | - | 5.81 m/s, 190° | - | - |
| 1778021615 | - | - | 1007.8 hPa | - | 5.81 m/s, 190° | - | - |
| 1778021010 | 18.89° C | 72% | 1007.5 hPa | - | 4.92 m/s, 180° | - | - |
| 1778020411 | 20° C | 64% | 1007.8 hPa | - | 7.6 m/s, 180° | - | - |
| 1778019809 | 21.67° C | 53% | 1007.5 hPa | - | 7.6 m/s, 180° | - | - |
| 1778019211 | 21.67° C | 53% | 1007.5 hPa | - | 7.6 m/s, 180° | - | - |
| 1778018732 | 21.67° C | 53% | 1007.5 hPa | - | 7.6 m/s, 180° | - | - |
| 1778018014 | 22.78° C | 56% | 1007.5 hPa | - | 8.94 m/s, 200° | - | - |
| 1778017414 | 22.78° C | 56% | 1007.5 hPa | - | 8.94 m/s, 200° | - | - |
| 1778016813 | 22.78° C | 56% | 1007.5 hPa | - | 8.94 m/s, 200° | - | - |
| 1778016210 | 22.78° C | 56% | 1007.5 hPa | - | 8.94 m/s, 200° | - | - |
| 1778015611 | 22.78° C | 56% | 1007.5 hPa | - | 8.94 m/s, 200° | - | - |
| 1778015011 | 22.78° C | 56% | 1007.5 hPa | - | 8.94 m/s, 200° | - | - |
| 1778014410 | 21.67° C | 60% | 1008.1 hPa | - | 6.71 m/s, 210° | - | - |
| 1778013814 | 21.67° C | 60% | 1008.1 hPa | - | 6.71 m/s, 210° | - | - |
| 1778013212 | 21.67° C | 60% | 1008.1 hPa | - | 6.71 m/s, 210° | - | - |
| 1778012616 | 21.67° C | 60% | 1008.1 hPa | - | 6.71 m/s, 210° | - | - |
| 1778012011 | 21.67° C | 60% | 1008.1 hPa | - | 6.71 m/s, 210° | - | - |
| 1778011409 | 21.67° C | 60% | 1008.1 hPa | - | 6.71 m/s, 210° | - | - |
| 1778010813 | 21.67° C | 56% | 1008.5 hPa | - | 9.39 m/s, 200° | - | - |
| 1778010213 | 21.67° C | 56% | 1008.5 hPa | - | 9.39 m/s, 200° | - | - |
| 1778009610 | 21.67° C | 56% | 1008.5 hPa | - | 9.39 m/s, 200° | - | - |
| 1778009012 | 21.67° C | 56% | 1008.5 hPa | - | 9.39 m/s, 200° | - | - |
| 1778008411 | 21.67° C | 56% | 1008.5 hPa | - | 9.39 m/s, 200° | - | - |
* Rain since midnight (hover to see other rain measurements)
** Current wind speed in m/s (hover to see current wind gust speed)